Necker Belle — MKYK7 — position and weather

sailwx.info

Track history (hours):
 
Tides and Currents Weather Stations Pressure Air Temp Water Temp Dewpoint Dewpoint Depression Visibility Wind Speed Wind Dir Waves Ship Positions

Necker Belle

Last reported at 2016-Aug-21 13:21 UTC. Time now 2016-Aug-29 14:47 UTC.
Position N 18°20' W 064°49'.
Warning: this ship's position is 8 days out of date.

Length 32 m.

Type: Sailing vessel. MMSI: 232728000.

Date/timePositionNaut miles runAvg speedWind from/ knotsBaromVisibWave heightAir tempDewpointWater temp
2016-Aug-21 13:21N 18°20' W 064°49'2 1.8
2016-Aug-21 12:21N 18°20' W 064°48'0 0.0
2016-Aug-21 11:21N 18°20' W 064°48'0 0.0
2016-Aug-21 10:24N 18°20' W 064°48'0 0.0
2016-Aug-21 09:18N 18°20' W 064°48'0 0.0
2016-Aug-21 07:30N 18°21' W 064°48'0 0.0
2016-Aug-21 06:21N 18°21' W 064°48'0 0.0
2016-Aug-21 05:30N 18°21' W 064°48'0 0.0
2016-Aug-21 04:27N 18°21' W 064°48'0 0.0
2016-Aug-21 03:27N 18°20' W 064°48'0 0.0
2016-Aug-21 02:30N 18°20' W 064°48'0 0.0
2016-Aug-21 01:27N 18°20' W 064°48'0 0.0
2016-Aug-21 00:24N 18°20' W 064°48'0 0.0
2016-Aug-20 23:24N 18°20' W 064°48'0 0.0
2016-Aug-20 22:30N 18°20' W 064°48'0 0.0
2016-Aug-20 21:33N 18°20' W 064°48'0 0.0
2016-Aug-20 20:33N 18°20' W 064°48'3 2.8
2016-Aug-20 19:30N 18°22' W 064°45'0 0.0
2016-Aug-20 18:30N 18°22' W 064°45'0 0.0
2016-Aug-20 17:29N 18°22' W 064°45'0 0.0
2016-Aug-20 16:23N 18°22' W 064°45'0 0.1
2016-Aug-20 15:29N 18°22' W 064°45'0 0.0
2016-Aug-20 14:29N 18°22' W 064°45'0 0.0
2016-Aug-20 13:32N 18°22' W 064°45'0 0.0
2016-Aug-20 12:32N 18°22' W 064°45'0 0.0
2016-Aug-20 11:32N 18°22' W 064°45'0 0.0
2016-Aug-20 10:32N 18°22' W 064°45'0 0.0
2016-Aug-20 09:26N 18°22' W 064°45'0 0.0
2016-Aug-20 08:26N 18°22' W 064°45'0 0.0
2016-Aug-20 07:32N 18°22' W 064°45'0 0.0
2016-Aug-20 06:23N 18°22' W 064°45'0 0.0
2016-Aug-20 05:26N 18°22' W 064°45'0 0.0
2016-Aug-20 04:29N 18°22' W 064°45'0 0.0
2016-Aug-20 03:26N 18°22' W 064°45'0 0.0
2016-Aug-20 02:32N 18°22' W 064°45'0 0.0
2016-Aug-20 01:26N 18°22' W 064°45'0 0.0
2016-Aug-19 23:32N 18°22' W 064°45'0 0.0
2016-Aug-19 22:26N 18°22' W 064°45'0 0.0
2016-Aug-19 21:32N 18°22' W 064°45'0 0.0
2016-Aug-19 20:26N 18°22' W 064°45'0 0.0
2016-Aug-19 19:32N 18°22' W 064°45'6 5.6
2016-Aug-19 18:30N 18°20' W 064°51'1 0.0
2016-Aug-17 16:12N 18°20' W 064°50'  
Track history (hours):
 
Tides and Currents Weather Stations Pressure Air Temp Water Temp Dewpoint Dewpoint Depression Visibility Wind Speed Wind Dir Waves Ship Positions

Necker Belle

Last reported at 2016-Aug-21 13:21 UTC. Time now 2016-Aug-29 14:47 UTC.
Position N 18°20' W 064°49'.
Warning: this ship's position is 8 days out of date.

Length 32 m.

Type: Sailing vessel. MMSI: 232728000.

Date/timePositionNaut miles runAvg speedWind from/ knotsBaromVisibWave heightAir tempDewpointWater temp
2016-Aug-21 13:21N 18°20' W 064°49'2 1.8
2016-Aug-21 12:21N 18°20' W 064°48'0 0.0
2016-Aug-21 11:21N 18°20' W 064°48'0 0.0
2016-Aug-21 10:24N 18°20' W 064°48'0 0.0
2016-Aug-21 09:18N 18°20' W 064°48'0 0.0
2016-Aug-21 07:30N 18°21' W 064°48'0 0.0
2016-Aug-21 06:21N 18°21' W 064°48'0 0.0
2016-Aug-21 05:30N 18°21' W 064°48'0 0.0
2016-Aug-21 04:27N 18°21' W 064°48'0 0.0
2016-Aug-21 03:27N 18°20' W 064°48'0 0.0
2016-Aug-21 02:30N 18°20' W 064°48'0 0.0
2016-Aug-21 01:27N 18°20' W 064°48'0 0.0
2016-Aug-21 00:24N 18°20' W 064°48'0 0.0
2016-Aug-20 23:24N 18°20' W 064°48'0 0.0
2016-Aug-20 22:30N 18°20' W 064°48'0 0.0
2016-Aug-20 21:33N 18°20' W 064°48'0 0.0
2016-Aug-20 20:33N 18°20' W 064°48'3 2.8
2016-Aug-20 19:30N 18°22' W 064°45'0 0.0
2016-Aug-20 18:30N 18°22' W 064°45'0 0.0
2016-Aug-20 17:29N 18°22' W 064°45'0 0.0
2016-Aug-20 16:23N 18°22' W 064°45'0 0.1
2016-Aug-20 15:29N 18°22' W 064°45'0 0.0
2016-Aug-20 14:29N 18°22' W 064°45'0 0.0
2016-Aug-20 13:32N 18°22' W 064°45'0 0.0
2016-Aug-20 12:32N 18°22' W 064°45'0 0.0
2016-Aug-20 11:32N 18°22' W 064°45'0 0.0
2016-Aug-20 10:32N 18°22' W 064°45'0 0.0
2016-Aug-20 09:26N 18°22' W 064°45'0 0.0
2016-Aug-20 08:26N 18°22' W 064°45'0 0.0
2016-Aug-20 07:32N 18°22' W 064°45'0 0.0
2016-Aug-20 06:23N 18°22' W 064°45'0 0.0
2016-Aug-20 05:26N 18°22' W 064°45'0 0.0
2016-Aug-20 04:29N 18°22' W 064°45'0 0.0
2016-Aug-20 03:26N 18°22' W 064°45'0 0.0
2016-Aug-20 02:32N 18°22' W 064°45'0 0.0
2016-Aug-20 01:26N 18°22' W 064°45'0 0.0
2016-Aug-19 23:32N 18°22' W 064°45'0 0.0
2016-Aug-19 22:26N 18°22' W 064°45'0 0.0
2016-Aug-19 21:32N 18°22' W 064°45'0 0.0
2016-Aug-19 20:26N 18°22' W 064°45'0 0.0
2016-Aug-19 19:32N 18°22' W 064°45'6 5.6
2016-Aug-19 18:30N 18°20' W 064°51'1 0.0
2016-Aug-17 16:12N 18°20' W 064°50'  

Dump ship's entire track history